Airfield :
LOGIN :

Register | Disclaimer

   EN    FR    IT 

 










Legend :    VFR   Marginal VFR   IFR   Intensive IFR   Very Intensive IFR
Visi :
Ceiling :
>= 8 km
>= 3000ft
5 to 8 km
1000 to 3000 ft
1500m to 5 km
500 to 1000 ft
800 to 1500m
200 to 500 ft
< 800m
< 200 ft
Symbols :   Thunderstorms  Fog  Heavy snow  Heavy precipitations  Wind > 20 kt
SIGMETs :     Misc.  Thunderstorms  Icing  Turbulence  Mountain Waves  Volcanic Ashes






- Airport Elevation : 309 ft
- IATA code : FNI


LFTW - Nîmes Garons

CURRENT METAR :
  • 280500Z AUTO 05008KT CAVOK 10/05 Q1010 TEMPO RA

EXPIRED METARs :
  • 280430Z AUTO 05008KT CAVOK 10/05 Q1011 TEMPO RA
  • 280400Z AUTO 05007KT CAVOK 10/05 Q1011 TEMPO RA
  • 280330Z AUTO 06008KT CAVOK 10/05 Q1011 TEMPO RA
  • 280300Z AUTO 05007KT CAVOK 10/05 Q1011 TEMPO RA
  • 280230Z AUTO 04007KT CAVOK 11/06 Q1012 TEMPO RA

TAF TAF LFTW
Valid from the 28 at 03:00 until the 29 at 03:00 UTC


280200Z 2803/2903 03010KT CAVOK
PROB40
TEMPO 2804/2810 RA



MET'MAP, your aeronautical weather chart ! - Copyright ORBIFLY December 2007 - Disclaimer

ORBIFLY MET'MAP TEAM :

Programming & Development : Alexandra Zaïnal
Concept & original design : Baudouin d'Aumeries
Assistance for programming : Marc-Olivier Méhu
Technical & hardware support : Manuel Goepfert

Contact : metmap@orbifly.com




SOURCES & CREDITS :

   NOAA